createdAt,value
2018-12-02T00:03:19.831Z,10.11
2018-12-02T00:05:44.935Z,10.22
2018-12-02T00:08:10.054Z,10.47
2018-12-02T00:10:35.131Z,10.12
2018-12-02T00:13:11.371Z,10.36
2018-12-02T00:15:38.158Z,9.82
2018-12-02T00:18:03.343Z,10.16
2018-12-02T00:20:28.528Z,10.10
2018-12-02T00:22:53.817Z,10.07
2018-12-02T00:25:19.176Z,10.15
2018-12-02T00:27:45.736Z,9.86
2018-12-02T00:30:30.944Z,10.02
2018-12-02T00:32:56.150Z,9.89
2018-12-02T00:35:21.387Z,10.00
2018-12-02T00:37:58.156Z,10.30
2018-12-02T00:40:26.966Z,9.86
2018-12-02T00:42:56.104Z,10.12
2018-12-02T00:45:22.535Z,10.32
2018-12-02T00:47:47.813Z,10.48
2018-12-02T00:50:32.383Z,10.54
2018-12-02T00:52:58.724Z,10.12
2018-12-02T00:55:25.097Z,10.35
2018-12-02T00:57:50.424Z,9.87
2018-12-02T01:00:34.544Z,10.14
2018-12-02T01:02:59.646Z,10.32
2018-12-02T01:05:24.846Z,10.46
2018-12-02T01:07:50.131Z,10.22
2018-12-02T01:10:34.224Z,10.24
2018-12-02T01:13:00.123Z,10.44
2018-12-02T01:15:44.301Z,10.39
2018-12-02T01:18:09.824Z,10.15
2018-12-02T01:20:35.139Z,10.47
2018-12-02T01:23:00.303Z,10.23
2018-12-02T01:25:25.428Z,10.08
2018-12-02T01:27:50.566Z,10.07
2018-12-02T01:30:34.761Z,9.79
2018-12-02T01:32:59.879Z,10.14
2018-12-02T01:35:25.112Z,10.14
2018-12-02T01:37:50.274Z,10.10
2018-12-02T01:40:34.515Z,10.35
2018-12-02T01:42:59.678Z,10.25
2018-12-02T01:45:43.816Z,10.26
2018-12-02T01:48:09.855Z,10.54
2018-12-02T01:50:34.909Z,10.37
2018-12-02T01:52:59.978Z,10.22
2018-12-02T01:55:25.208Z,10.16
2018-12-02T01:58:02.180Z,10.43
2018-12-02T02:00:28.340Z,10.43
2018-12-02T02:02:53.900Z,10.61
2018-12-02T02:05:20.109Z,10.22
2018-12-02T02:07:45.292Z,10.51
2018-12-02T02:10:29.764Z,10.37
2018-12-02T02:15:31.904Z,10.65
2018-12-02T02:17:56.983Z,10.63
2018-12-02T02:20:23.086Z,10.43
2018-12-02T02:22:48.365Z,10.28
2018-12-02T02:25:14.501Z,10.53
2018-12-02T02:27:39.987Z,10.67
2018-12-02T02:30:10.305Z,10.79
2018-12-02T02:32:35.473Z,10.47
2018-12-02T02:35:00.545Z,10.39
2018-12-02T02:37:25.686Z,10.69
2018-12-02T02:39:50.774Z,10.50
2018-12-02T02:42:15.825Z,10.15
2018-12-02T02:44:40.909Z,10.11
2018-12-02T02:47:16.708Z,10.42
2018-12-02T02:49:41.771Z,10.69
2018-12-02T02:52:07.291Z,10.70
2018-12-02T02:54:32.370Z,10.29
2018-12-02T02:56:57.448Z,10.68
2018-12-02T02:59:22.515Z,10.73
2018-12-02T03:01:47.574Z,10.47
2018-12-02T03:04:12.646Z,10.52
2018-12-02T03:06:37.700Z,10.62
2018-12-02T03:09:02.953Z,10.10
2018-12-02T03:11:27.987Z,10.62
2018-12-02T03:13:53.063Z,10.69
2018-12-02T03:16:18.126Z,10.61
2018-12-02T03:18:43.170Z,10.75
2018-12-02T03:21:08.323Z,10.74
2018-12-02T03:23:33.380Z,10.86
2018-12-02T03:25:58.597Z,10.88
2018-12-02T03:28:23.698Z,10.87
2018-12-02T03:30:48.759Z,10.75
2018-12-02T03:33:13.829Z,10.51
2018-12-02T03:35:38.864Z,10.88
2018-12-02T03:38:03.981Z,10.92
2018-12-02T03:40:29.498Z,10.38
2018-12-02T03:42:54.959Z,10.80
2018-12-02T03:45:21.071Z,10.98
2018-12-02T03:47:46.321Z,10.96
2018-12-02T03:50:31.982Z,10.96
2018-12-02T03:52:57.192Z,10.90
2018-12-02T03:55:22.323Z,10.94
2018-12-02T03:57:47.666Z,10.35
2018-12-02T04:00:22.771Z,10.73
2018-12-02T04:02:47.915Z,10.80
2018-12-02T04:05:14.257Z,10.72
2018-12-02T04:07:39.618Z,10.30
2018-12-02T04:10:05.252Z,9.97
2018-12-02T04:12:30.410Z,10.71
2018-12-02T04:14:55.494Z,10.56
2018-12-02T04:17:20.570Z,10.34
2018-12-02T04:19:45.643Z,10.69
2018-12-02T04:22:10.762Z,10.49
2018-12-02T04:24:35.812Z,10.62
2018-12-02T04:27:01.002Z,10.66
2018-12-02T04:29:26.035Z,10.39
2018-12-02T04:31:51.077Z,10.63
2018-12-02T04:34:16.167Z,10.76
2018-12-02T04:36:41.176Z,10.84
2018-12-02T04:39:08.622Z,10.81
2018-12-02T04:41:33.679Z,10.66
2018-12-02T04:43:58.734Z,10.87
2018-12-02T04:46:23.811Z,11.08
2018-12-02T04:48:48.860Z,10.78
2018-12-02T04:51:13.936Z,10.97
2018-12-02T04:53:58.831Z,10.80
2018-12-02T04:56:23.902Z,10.95
2018-12-02T04:58:49.087Z,10.56
2018-12-02T05:01:14.209Z,10.77
2018-12-02T05:03:39.265Z,10.87
2018-12-02T05:06:04.420Z,10.53
2018-12-02T05:08:29.526Z,10.62
2018-12-02T05:10:54.595Z,10.67
2018-12-02T05:13:19.634Z,10.84
2018-12-02T05:15:44.725Z,10.79
2018-12-02T05:18:09.869Z,10.55
2018-12-02T05:20:35.045Z,10.57
2018-12-02T05:23:00.134Z,10.63
2018-12-02T05:25:25.169Z,10.53
2018-12-02T05:27:50.242Z,10.50
2018-12-02T05:30:16.510Z,10.96
2018-12-02T05:32:41.975Z,10.70
2018-12-02T05:35:07.551Z,10.53
2018-12-02T05:37:32.634Z,10.36
2018-12-02T05:39:57.697Z,10.53
2018-12-02T05:42:41.434Z,10.50
2018-12-02T05:45:07.638Z,10.90
2018-12-02T05:47:32.777Z,10.69
2018-12-02T05:49:57.847Z,10.60
2018-12-02T05:52:22.893Z,10.86
2018-12-02T05:54:47.961Z,10.72
2018-12-02T05:57:32.161Z,10.87
2018-12-02T05:59:57.292Z,10.70
2018-12-02T06:02:22.517Z,10.99
2018-12-02T06:04:47.662Z,10.59
2018-12-02T06:07:12.697Z,10.83
2018-12-02T06:09:37.752Z,10.73
2018-12-02T06:12:02.801Z,10.96
2018-12-02T06:14:27.968Z,10.74
2018-12-02T06:16:53.017Z,10.85
2018-12-02T06:19:18.075Z,10.60
2018-12-02T06:21:43.157Z,10.97
2018-12-02T06:24:08.349Z,10.46
2018-12-02T06:26:33.439Z,10.47
2018-12-02T06:29:05.996Z,10.74
2018-12-02T06:31:32.031Z,10.78
2018-12-02T06:34:02.968Z,10.56
2018-12-02T06:36:28.023Z,10.57
2018-12-02T06:39:03.912Z,10.78
2018-12-02T06:41:29.154Z,10.93
2018-12-02T06:44:14.214Z,10.71
2018-12-02T06:46:39.304Z,11.09
2018-12-02T06:49:04.468Z,11.26
2018-12-02T06:51:29.541Z,11.07
2018-12-02T06:53:54.709Z,10.99
2018-12-02T06:56:22.870Z,10.43
2018-12-02T06:59:09.037Z,10.99
2018-12-02T07:02:12.118Z,11.16
2018-12-02T07:04:39.012Z,10.84
2018-12-02T07:07:04.514Z,10.84
2018-12-02T07:09:29.564Z,10.73
2018-12-02T07:11:54.645Z,10.75
2018-12-02T07:14:19.750Z,10.99
2018-12-02T07:16:44.792Z,10.76
2018-12-02T07:19:49.937Z,11.03
2018-12-02T07:22:27.185Z,11.05
2018-12-02T07:24:52.925Z,10.90
2018-12-02T07:27:18.767Z,10.72
2018-12-02T07:29:43.894Z,10.39
2018-12-02T07:32:08.933Z,10.59
2018-12-02T07:34:33.964Z,10.59
2018-12-02T07:37:00.959Z,10.54
2018-12-02T07:40:04.024Z,10.47
2018-12-02T07:42:29.105Z,10.57
2018-12-02T07:44:54.234Z,10.72
2018-12-02T07:49:58.600Z,10.60
2018-12-02T07:52:23.664Z,10.73
2018-12-02T07:54:48.853Z,10.92
2018-12-02T07:57:14.019Z,11.14
2018-12-02T07:59:39.075Z,10.90
2018-12-02T08:02:04.249Z,10.89
2018-12-02T08:04:29.342Z,11.11
2018-12-02T08:06:54.447Z,10.83
2018-12-02T08:09:39.334Z,10.79
2018-12-02T08:12:04.536Z,11.19
2018-12-02T08:14:49.462Z,11.30
2018-12-02T08:17:14.660Z,11.40
2018-12-02T08:19:39.726Z,11.43
2018-12-02T08:22:04.861Z,11.64
2018-12-02T08:24:30.000Z,11.39
2018-12-02T08:26:55.072Z,11.06
2018-12-02T08:29:20.191Z,11.55
2018-12-02T08:31:45.250Z,11.87
2018-12-02T08:34:10.357Z,11.20
2018-12-02T08:36:35.448Z,11.52
2018-12-02T08:39:00.514Z,11.94
2018-12-02T08:41:25.607Z,11.90
2018-12-02T08:43:50.804Z,11.88
2018-12-02T08:46:16.003Z,11.82
2018-12-02T08:48:41.064Z,11.65
2018-12-02T08:51:06.265Z,11.84
2018-12-02T08:53:51.241Z,12.04
2018-12-02T08:56:16.324Z,11.73
2018-12-02T08:58:52.799Z,11.49
2018-12-02T09:01:17.888Z,11.44
2018-12-02T09:03:42.994Z,11.48
2018-12-02T09:06:08.288Z,12.03
2018-12-02T09:08:33.446Z,11.67
2018-12-02T09:10:58.522Z,11.68
2018-12-02T09:13:23.917Z,11.92
2018-12-02T09:15:49.105Z,11.90
2018-12-02T09:18:14.207Z,11.62
2018-12-02T09:20:39.449Z,11.69
2018-12-02T09:23:24.614Z,11.74
2018-12-02T09:25:49.728Z,11.50
2018-12-02T09:28:14.843Z,11.49
2018-12-02T09:30:40.075Z,11.45
2018-12-02T09:33:05.317Z,11.21
2018-12-02T09:35:30.523Z,11.28
2018-12-02T09:37:55.631Z,11.55
2018-12-02T09:40:20.795Z,11.40
2018-12-02T09:42:50.032Z,11.36
2018-12-02T09:45:34.212Z,11.27
2018-12-02T09:48:10.946Z,11.29
2018-12-02T09:50:36.023Z,10.92
2018-12-02T09:53:12.713Z,11.52
2018-12-02T09:55:56.916Z,11.40
2018-12-02T09:58:43.331Z,10.92
2018-12-02T10:01:08.747Z,10.87
2018-12-02T10:03:33.821Z,11.14
2018-12-02T10:05:59.035Z,11.15
2018-12-02T10:08:24.125Z,10.82
2018-12-02T10:10:49.334Z,11.07
2018-12-02T10:13:16.283Z,10.89
2018-12-02T10:15:42.531Z,10.70
2018-12-02T10:18:18.487Z,10.73
2018-12-02T10:20:43.704Z,10.63
2018-12-02T10:23:09.439Z,10.68
2018-12-02T10:25:34.728Z,11.22
2018-12-02T10:28:19.702Z,10.61
2018-12-02T10:30:44.779Z,11.05
2018-12-02T10:33:10.292Z,11.06
2018-12-02T10:35:35.427Z,10.95
2018-12-02T10:38:00.521Z,10.88
2018-12-02T10:40:26.875Z,10.75
2018-12-02T10:42:51.947Z,11.26
2018-12-02T10:45:36.200Z,11.19
2018-12-02T10:48:02.221Z,11.32
2018-12-02T10:50:46.459Z,11.08
2018-12-02T10:53:31.275Z,10.99
2018-12-02T10:56:00.515Z,11.50
2018-12-02T10:58:45.956Z,11.28
2018-12-02T11:01:29.901Z,11.01
2018-12-02T11:03:55.059Z,11.14
2018-12-02T11:06:20.243Z,11.23
2018-12-02T11:09:05.402Z,11.23
2018-12-02T11:11:30.709Z,10.69
2018-12-02T11:13:55.834Z,11.35
2018-12-02T11:16:21.006Z,11.06
2018-12-02T11:18:46.260Z,10.90
2018-12-02T11:21:11.565Z,10.82
2018-12-02T11:23:36.674Z,11.34
2018-12-02T11:26:01.800Z,11.56
2018-12-02T11:28:26.889Z,10.97
2018-12-02T11:30:52.052Z,11.95
2018-12-02T11:33:17.161Z,11.58
2018-12-02T11:35:42.264Z,11.15
2018-12-02T11:38:18.678Z,11.53
2018-12-02T11:40:44.044Z,11.40
2018-12-02T11:43:09.859Z,10.99
2018-12-02T11:45:35.019Z,11.18
2018-12-02T11:48:00.326Z,11.13
2018-12-02T11:50:26.476Z,10.97
2018-12-02T11:52:51.788Z,11.06
2018-12-02T11:55:28.431Z,11.01
2018-12-02T11:57:53.518Z,11.30
2018-12-02T12:00:38.305Z,11.10
2018-12-02T12:03:03.352Z,11.25
2018-12-02T12:05:28.704Z,11.51
2018-12-02T12:07:53.966Z,11.92
2018-12-02T12:10:29.219Z,11.53
2018-12-02T12:12:55.632Z,11.83
2018-12-02T12:15:39.858Z,11.86
2018-12-02T12:18:05.080Z,11.59
2018-12-02T12:20:52.895Z,11.38
2018-12-02T12:23:19.766Z,11.17
2018-12-02T12:25:45.062Z,11.26
2018-12-02T12:28:10.748Z,10.78
2018-12-02T12:30:36.083Z,11.62
2018-12-02T12:33:01.343Z,11.10
2018-12-02T12:35:27.021Z,11.26
2018-12-02T12:37:52.222Z,11.21
2018-12-02T12:40:18.473Z,11.03
2018-12-02T12:42:44.911Z,11.30
2018-12-02T12:45:12.062Z,11.09
2018-12-02T12:47:37.168Z,11.07
2018-12-02T12:50:02.245Z,11.23
2018-12-02T12:52:27.386Z,11.21
2018-12-02T12:54:52.589Z,10.89
2018-12-02T12:57:17.787Z,11.17
2018-12-02T12:59:53.593Z,11.14
2018-12-02T13:02:18.873Z,11.31
2018-12-02T13:04:44.247Z,11.01
2018-12-02T13:07:09.550Z,11.08
2018-12-02T13:09:34.667Z,10.89
2018-12-02T13:11:59.780Z,11.44
2018-12-02T13:14:24.987Z,11.21
2018-12-02T13:16:50.086Z,11.67
2018-12-02T13:19:15.385Z,11.37
2018-12-02T13:21:40.464Z,11.24
2018-12-02T13:24:17.293Z,11.06
2018-12-02T13:26:42.515Z,11.20
2018-12-02T13:29:07.752Z,11.19
2018-12-02T13:31:33.044Z,11.50
2018-12-02T13:34:09.727Z,11.27
2018-12-02T13:36:34.883Z,11.10
2018-12-02T13:39:00.007Z,11.45
2018-12-02T13:41:25.089Z,11.36
2018-12-02T13:43:50.332Z,11.52
2018-12-02T13:46:15.643Z,11.02
2018-12-02T13:48:40.895Z,10.99
2018-12-02T13:51:06.127Z,10.91
2018-12-02T13:56:22.966Z,11.29
2018-12-02T13:58:45.248Z,10.69
2018-12-02T14:01:10.462Z,11.10
2018-12-02T14:03:35.561Z,11.49
2018-12-02T14:06:00.723Z,11.27
2018-12-02T14:08:25.833Z,10.97
2018-12-02T14:10:50.984Z,11.29
2018-12-02T14:13:35.888Z,11.17
2018-12-02T14:16:38.972Z,11.05
2018-12-02T14:19:14.153Z,11.00
2018-12-02T14:21:39.427Z,11.23
2018-12-02T14:24:05.060Z,11.60
2018-12-02T14:26:30.289Z,11.26
2018-12-02T14:29:15.226Z,11.46
2018-12-02T14:31:42.039Z,11.26
2018-12-02T14:34:07.714Z,11.24
2018-12-02T14:36:32.963Z,11.04
2018-12-02T14:38:58.098Z,11.31
2018-12-02T14:41:23.380Z,11.35
2018-12-02T14:43:48.546Z,11.10
2018-12-02T14:46:13.832Z,11.11
2018-12-02T14:48:38.962Z,11.21
2018-12-02T14:51:04.271Z,11.23
2018-12-02T14:53:29.450Z,11.17
2018-12-02T14:55:54.790Z,11.31
2018-12-02T14:58:19.911Z,11.33
2018-12-02T15:00:45.178Z,11.34
2018-12-02T15:03:10.430Z,11.16
2018-12-02T15:05:35.513Z,11.35
2018-12-02T15:08:00.858Z,11.30
2018-12-02T15:10:26.004Z,11.26
2018-12-02T15:12:51.155Z,11.53
2018-12-02T15:15:19.813Z,11.59
2018-12-02T15:17:45.863Z,11.32
2018-12-02T15:20:29.991Z,11.20
2018-12-02T15:22:55.091Z,11.40
2018-12-02T15:25:20.213Z,11.63
2018-12-02T15:27:46.102Z,11.33
2018-12-02T15:30:30.353Z,11.44
2018-12-02T15:32:55.535Z,11.51
2018-12-02T15:35:20.989Z,11.39
2018-12-02T15:37:46.114Z,11.42
2018-12-02T15:40:15.578Z,11.43
2018-12-02T15:42:42.086Z,11.66
2018-12-02T15:45:17.847Z,11.74
2018-12-02T15:47:43.181Z,11.78
2018-12-02T15:50:27.357Z,11.60
2018-12-02T15:52:52.790Z,11.96
2018-12-02T15:55:37.332Z,11.70
2018-12-02T15:58:04.027Z,11.51
2018-12-02T16:00:33.722Z,11.65
2018-12-02T16:02:58.903Z,11.49
2018-12-02T16:05:24.075Z,11.66
2018-12-02T16:07:49.220Z,11.61
2018-12-02T16:10:15.031Z,11.81
2018-12-02T16:13:00.013Z,11.73
2018-12-02T16:15:44.217Z,11.73
2018-12-02T16:18:11.051Z,11.69
2018-12-02T16:21:04.906Z,11.63
2018-12-02T16:23:30.370Z,11.67
2018-12-02T16:25:55.666Z,11.74
2018-12-02T16:28:20.946Z,11.84
2018-12-02T16:30:46.136Z,11.67
2018-12-02T16:33:11.376Z,11.80
2018-12-02T16:35:36.506Z,11.93
2018-12-02T16:38:01.603Z,11.99
2018-12-02T16:40:27.357Z,12.01
2018-12-02T16:43:02.197Z,12.10
2018-12-02T16:45:27.351Z,11.95
2018-12-02T16:48:12.175Z,11.75
2018-12-02T16:50:38.733Z,11.80
2018-12-02T16:53:08.928Z,11.92
2018-12-02T16:55:35.876Z,11.98
2018-12-02T16:58:39.012Z,11.91
2018-12-02T17:01:23.899Z,11.93
2018-12-02T17:03:49.655Z,12.16
2018-12-02T17:06:14.792Z,12.03
2018-12-02T17:08:40.148Z,12.22
2018-12-02T17:11:05.475Z,12.16
2018-12-02T17:13:30.722Z,12.24
2018-12-02T17:15:55.947Z,12.05
2018-12-02T17:18:31.521Z,12.14
2018-12-02T17:21:08.441Z,12.22
2018-12-02T17:23:33.807Z,12.32
2018-12-02T17:28:35.755Z,12.38
2018-12-02T17:31:14.528Z,12.40
2018-12-02T17:33:39.880Z,12.50
2018-12-02T17:36:05.197Z,12.39
2018-12-02T17:38:30.480Z,12.60
2018-12-02T17:40:57.137Z,12.55
2018-12-02T17:43:22.265Z,12.46
2018-12-02T17:45:47.506Z,12.52
2018-12-02T17:48:12.731Z,12.58
2018-12-02T17:50:38.028Z,12.51
2018-12-02T17:53:03.235Z,12.56
2018-12-02T17:55:28.424Z,12.52
2018-12-02T17:57:53.700Z,12.72
2018-12-02T18:00:38.338Z,12.69
2018-12-02T18:03:04.219Z,12.74
2018-12-02T18:05:48.610Z,12.68
2018-12-02T18:08:13.904Z,12.66
2018-12-02T18:10:39.183Z,12.99
2018-12-02T18:13:04.501Z,12.90
2018-12-02T18:15:29.848Z,12.77
2018-12-02T18:17:55.218Z,12.98
2018-12-02T18:20:20.663Z,12.92
2018-12-02T18:22:46.053Z,12.95
2018-12-02T18:25:12.766Z,12.90
2018-12-02T18:27:37.993Z,12.86
2018-12-02T18:30:03.264Z,12.80
2018-12-02T18:32:28.630Z,12.81
2018-12-02T18:34:53.799Z,12.83
2018-12-02T18:37:18.998Z,12.91
2018-12-02T18:39:44.236Z,12.95
2018-12-02T18:42:09.998Z,13.08
2018-12-02T18:44:35.197Z,13.18
2018-12-02T18:47:00.414Z,12.93
2018-12-02T18:49:25.810Z,13.00
2018-12-02T18:51:50.922Z,12.97
2018-12-02T18:54:16.154Z,13.14
2018-12-02T18:56:41.971Z,12.98
2018-12-02T18:59:07.276Z,12.98
2018-12-02T19:01:32.710Z,12.93
2018-12-02T19:03:57.938Z,12.93
2018-12-02T19:06:28.123Z,12.91
2018-12-02T19:09:10.793Z,12.92
2018-12-02T19:11:36.006Z,13.11
2018-12-02T19:14:01.168Z,13.04
2018-12-02T19:16:26.297Z,13.07
2018-12-02T19:18:51.750Z,12.89
2018-12-02T19:21:35.863Z,13.08
2018-12-02T19:24:01.420Z,13.15
2018-12-02T19:26:26.657Z,13.23
2018-12-02T19:28:51.857Z,13.03
2018-12-02T19:31:17.175Z,13.00
2018-12-02T19:34:02.110Z,12.96
2018-12-02T19:36:29.776Z,12.95
2018-12-02T19:38:55.079Z,13.20
2018-12-02T19:41:20.272Z,13.21
2018-12-02T19:43:57.457Z,13.30
2018-12-02T19:46:22.690Z,13.44
2018-12-02T19:48:47.965Z,13.06
2018-12-02T19:51:13.295Z,13.05
2018-12-02T19:53:38.580Z,13.11
2018-12-02T19:56:03.852Z,13.23
2018-12-02T19:58:29.084Z,13.13
2018-12-02T20:00:54.422Z,13.27
2018-12-02T20:03:19.649Z,13.09
2018-12-02T20:05:45.707Z,13.22
2018-12-02T20:08:14.945Z,12.97
2018-12-02T20:10:41.181Z,13.06
2018-12-02T20:13:18.107Z,13.27
2018-12-02T20:16:02.150Z,13.29
2018-12-02T20:18:27.502Z,13.10
2018-12-02T20:20:56.993Z,13.23
2018-12-02T20:23:41.683Z,13.18
2018-12-02T20:26:07.031Z,13.08
2018-12-02T20:28:46.294Z,13.25
2018-12-02T20:31:13.473Z,13.05
2018-12-02T20:33:38.686Z,13.24
2018-12-02T20:36:14.259Z,12.96
2018-12-02T20:38:39.503Z,13.08
2018-12-02T20:41:04.727Z,13.13
2018-12-02T20:43:29.994Z,13.04
2018-12-02T20:45:55.254Z,13.09
2018-12-02T20:48:20.497Z,13.28
2018-12-02T20:50:45.690Z,13.14
2018-12-02T20:53:15.944Z,13.19
2018-12-02T20:55:43.241Z,13.20
2018-12-02T20:58:08.344Z,13.15
2018-12-02T21:00:33.708Z,13.09
2018-12-02T21:03:18.662Z,13.36
2018-12-02T21:06:04.646Z,13.55
2018-12-02T21:08:29.868Z,13.64
2018-12-02T21:10:55.464Z,13.44
2018-12-02T21:13:20.643Z,13.55
2018-12-02T21:15:45.835Z,14.00
2018-12-02T21:18:11.150Z,13.99
2018-12-02T21:23:13.748Z,13.63
2018-12-02T21:25:49.271Z,13.52
2018-12-02T21:28:14.494Z,13.72
2018-12-02T21:30:39.781Z,13.79
2018-12-02T21:33:05.081Z,14.00
2018-12-02T21:35:30.188Z,13.84
2018-12-02T21:37:56.705Z,13.90
2018-12-02T21:40:21.928Z,13.54
2018-12-02T21:42:47.114Z,14.13
2018-12-02T21:45:31.794Z,13.69
2018-12-02T21:47:57.622Z,13.74
2018-12-02T21:50:42.383Z,13.86
2018-12-02T21:53:07.571Z,14.01
2018-12-02T21:55:32.659Z,13.65
2018-12-02T21:57:57.889Z,13.71
2018-12-02T22:00:41.766Z,13.95
2018-12-02T22:03:06.874Z,13.95
2018-12-02T22:05:32.039Z,13.91
2018-12-02T22:07:57.298Z,13.48
2018-12-02T22:10:31.241Z,13.86
2018-12-02T22:12:56.363Z,13.94
2018-12-02T22:15:21.543Z,14.20
2018-12-02T22:17:46.699Z,14.08
2018-12-02T22:20:30.828Z,13.75
2018-12-02T22:22:56.032Z,13.52
2018-12-02T22:25:40.275Z,13.72
2018-12-02T22:28:06.056Z,13.39
2018-12-02T22:30:31.176Z,13.73
2018-12-02T22:32:56.284Z,13.53
2018-12-02T22:35:21.526Z,13.49
2018-12-02T22:37:47.413Z,13.45
2018-12-02T22:40:31.559Z,13.51
2018-12-02T22:42:57.196Z,13.58
2018-12-02T22:45:23.583Z,13.89
2018-12-02T22:47:48.676Z,13.94
2018-12-02T22:50:17.572Z,13.95
2018-12-02T22:52:42.858Z,13.94
2018-12-02T22:55:09.588Z,14.03
2018-12-02T22:57:34.742Z,13.95
2018-12-02T22:59:59.788Z,14.00
2018-12-02T23:02:43.797Z,13.94
2018-12-02T23:05:08.975Z,13.64
2018-12-02T23:07:34.126Z,13.65
2018-12-02T23:09:59.311Z,13.60
2018-12-02T23:12:24.399Z,13.69
2018-12-02T23:14:49.498Z,13.74
2018-12-02T23:17:33.730Z,13.50
2018-12-02T23:19:58.787Z,13.54
2018-12-02T23:22:23.872Z,13.46
2018-12-02T23:24:48.973Z,13.39
2018-12-02T23:27:14.140Z,13.34
2018-12-02T23:29:39.290Z,13.35
2018-12-02T23:32:04.498Z,13.25
2018-12-02T23:34:29.584Z,13.43
2018-12-02T23:36:54.688Z,13.49
2018-12-02T23:39:19.784Z,13.53
2018-12-02T23:41:44.923Z,13.78
2018-12-02T23:44:10.071Z,13.62
2018-12-02T23:46:35.166Z,13.33
2018-12-02T23:49:00.227Z,13.32
2018-12-02T23:51:25.324Z,13.25
2018-12-02T23:56:27.520Z,13.50
2018-12-02T23:58:52.604Z,13.44
